sensor_id;sensor_type;location;lat;lon;timestamp;P1;durP1;ratioP1;P2;durP2;ratioP2
74335;SDS011;62755;-33.398;-70.572;2023-04-29T00:00:13;27.20;;;9.30;;
74335;SDS011;62755;-33.398;-70.572;2023-04-29T00:03:03;27.90;;;8.60;;
74335;SDS011;62755;-33.398;-70.572;2023-04-29T00:05:55;35.47;;;8.52;;
74335;SDS011;62755;-33.398;-70.572;2023-04-29T00:08:44;28.42;;;9.63;;
74335;SDS011;62755;-33.398;-70.572;2023-04-29T00:11:33;31.77;;;8.70;;
74335;SDS011;62755;-33.398;-70.572;2023-04-29T00:14:22;26.75;;;8.63;;
74335;SDS011;62755;-33.398;-70.572;2023-04-29T00:17:12;22.88;;;9.15;;
74335;SDS011;62755;-33.398;-70.572;2023-04-29T00:20:02;24.48;;;12.07;;
74335;SDS011;62755;-33.398;-70.572;2023-04-29T00:22:54;25.40;;;12.05;;
74335;SDS011;62755;-33.398;-70.572;2023-04-29T00:25:43;31.80;;;12.80;;
74335;SDS011;62755;-33.398;-70.572;2023-04-29T00:28:33;25.42;;;9.35;;
74335;SDS011;62755;-33.398;-70.572;2023-04-29T00:31:22;24.60;;;9.20;;
74335;SDS011;62755;-33.398;-70.572;2023-04-29T00:34:12;33.90;;;13.98;;
74335;SDS011;62755;-33.398;-70.572;2023-04-29T00:37:01;37.08;;;10.70;;
74335;SDS011;62755;-33.398;-70.572;2023-04-29T00:39:52;43.05;;;18.00;;
74335;SDS011;62755;-33.398;-70.572;2023-04-29T00:42:42;28.40;;;10.80;;
74335;SDS011;62755;-33.398;-70.572;2023-04-29T00:45:31;34.83;;;15.90;;
74335;SDS011;62755;-33.398;-70.572;2023-04-29T00:48:21;33.78;;;11.32;;
74335;SDS011;62755;-33.398;-70.572;2023-04-29T00:51:10;41.63;;;12.38;;
74335;SDS011;62755;-33.398;-70.572;2023-04-29T00:54:00;34.03;;;11.00;;
74335;SDS011;62755;-33.398;-70.572;2023-04-29T00:56:51;38.97;;;13.10;;
74335;SDS011;62755;-33.398;-70.572;2023-04-29T00:59:42;31.85;;;11.95;;
74335;SDS011;62755;-33.398;-70.572;2023-04-29T01:02:32;32.95;;;11.85;;
74335;SDS011;62755;-33.398;-70.572;2023-04-29T01:05:21;27.58;;;11.20;;
74335;SDS011;62755;-33.398;-70.572;2023-04-29T01:08:15;36.53;;;11.85;;
74335;SDS011;62755;-33.398;-70.572;2023-04-29T01:11:15;34.45;;;12.05;;
74335;SDS011;62755;-33.398;-70.572;2023-04-29T01:14:12;40.55;;;12.52;;
74335;SDS011;62755;-33.398;-70.572;2023-04-29T01:17:04;35.08;;;12.93;;
74335;SDS011;62755;-33.398;-70.572;2023-04-29T01:19:58;38.38;;;15.80;;
74335;SDS011;62755;-33.398;-70.572;2023-04-29T01:22:49;51.13;;;20.10;;
74335;SDS011;62755;-33.398;-70.572;2023-04-29T01:25:40;39.90;;;18.13;;
74335;SDS011;62755;-33.398;-70.572;2023-04-29T01:28:36;39.85;;;19.08;;
74335;SDS011;62755;-33.398;-70.572;2023-04-29T01:31:35;41.40;;;20.23;;
74335;SDS011;62755;-33.398;-70.572;2023-04-29T01:34:32;46.40;;;21.45;;
74335;SDS011;62755;-33.398;-70.572;2023-04-29T01:37:30;51.97;;;22.45;;
74335;SDS011;62755;-33.398;-70.572;2023-04-29T01:40:28;50.10;;;25.17;;
74335;SDS011;62755;-33.398;-70.572;2023-04-29T01:43:23;61.30;;;28.15;;
74335;SDS011;62755;-33.398;-70.572;2023-04-29T01:46:18;63.88;;;29.33;;
74335;SDS011;62755;-33.398;-70.572;2023-04-29T01:49:07;74.10;;;31.65;;
74335;SDS011;62755;-33.398;-70.572;2023-04-29T01:51:57;60.80;;;31.20;;
74335;SDS011;62755;-33.398;-70.572;2023-04-29T01:54:46;73.30;;;35.03;;
74335;SDS011;62755;-33.398;-70.572;2023-04-29T01:57:35;61.92;;;34.35;;
74335;SDS011;62755;-33.398;-70.572;2023-04-29T02:00:26;75.13;;;40.47;;
74335;SDS011;62755;-33.398;-70.572;2023-04-29T02:03:16;88.75;;;44.25;;
74335;SDS011;62755;-33.398;-70.572;2023-04-29T02:06:05;88.88;;;41.85;;
74335;SDS011;62755;-33.398;-70.572;2023-04-29T02:08:55;84.72;;;43.67;;
74335;SDS011;62755;-33.398;-70.572;2023-04-29T02:11:44;89.82;;;39.53;;
74335;SDS011;62755;-33.398;-70.572;2023-04-29T02:14:34;78.65;;;38.95;;
74335;SDS011;62755;-33.398;-70.572;2023-04-29T02:17:25;67.85;;;37.03;;
74335;SDS011;62755;-33.398;-70.572;2023-04-29T02:20:14;83.88;;;38.80;;
74335;SDS011;62755;-33.398;-70.572;2023-04-29T02:23:04;80.32;;;40.08;;
74335;SDS011;62755;-33.398;-70.572;2023-04-29T02:25:53;78.95;;;37.85;;
74335;SDS011;62755;-33.398;-70.572;2023-04-29T02:28:43;71.82;;;39.00;;
74335;SDS011;62755;-33.398;-70.572;2023-04-29T02:31:33;67.95;;;34.15;;
74335;SDS011;62755;-33.398;-70.572;2023-04-29T02:34:24;67.43;;;36.03;;
74335;SDS011;62755;-33.398;-70.572;2023-04-29T02:37:14;66.78;;;32.88;;
74335;SDS011;62755;-33.398;-70.572;2023-04-29T02:40:03;65.70;;;32.03;;
74335;SDS011;62755;-33.398;-70.572;2023-04-29T02:42:54;62.65;;;29.83;;
74335;SDS011;62755;-33.398;-70.572;2023-04-29T02:45:43;53.30;;;29.90;;
74335;SDS011;62755;-33.398;-70.572;2023-04-29T02:48:33;64.78;;;31.42;;
74335;SDS011;62755;-33.398;-70.572;2023-04-29T02:51:24;54.92;;;28.90;;
74335;SDS011;62755;-33.398;-70.572;2023-04-29T02:54:13;63.67;;;30.10;;
74335;SDS011;62755;-33.398;-70.572;2023-04-29T02:57:03;55.90;;;28.58;;
74335;SDS011;62755;-33.398;-70.572;2023-04-29T02:59:53;52.83;;;23.45;;
74335;SDS011;62755;-33.398;-70.572;2023-04-29T03:02:42;55.42;;;27.10;;
74335;SDS011;62755;-33.398;-70.572;2023-04-29T03:05:31;57.47;;;24.80;;
74335;SDS011;62755;-33.398;-70.572;2023-04-29T03:08:23;48.20;;;24.63;;
74335;SDS011;62755;-33.398;-70.572;2023-04-29T03:11:13;53.45;;;27.48;;
74335;SDS011;62755;-33.398;-70.572;2023-04-29T03:14:02;51.45;;;26.75;;
74335;SDS011;62755;-33.398;-70.572;2023-04-29T03:16:51;56.83;;;27.83;;
74335;SDS011;62755;-33.398;-70.572;2023-04-29T03:19:41;55.65;;;26.02;;
74335;SDS011;62755;-33.398;-70.572;2023-04-29T03:22:30;63.08;;;28.88;;
74335;SDS011;62755;-33.398;-70.572;2023-04-29T03:25:22;49.25;;;27.30;;
74335;SDS011;62755;-33.398;-70.572;2023-04-29T03:28:12;47.33;;;24.63;;
74335;SDS011;62755;-33.398;-70.572;2023-04-29T03:31:01;49.75;;;25.98;;
74335;SDS011;62755;-33.398;-70.572;2023-04-29T03:33:51;43.00;;;26.02;;
74335;SDS011;62755;-33.398;-70.572;2023-04-29T03:36:40;51.28;;;24.95;;
74335;SDS011;62755;-33.398;-70.572;2023-04-29T03:39:30;52.40;;;24.55;;
74335;SDS011;62755;-33.398;-70.572;2023-04-29T03:42:21;48.00;;;23.27;;
74335;SDS011;62755;-33.398;-70.572;2023-04-29T03:45:10;39.95;;;22.50;;
74335;SDS011;62755;-33.398;-70.572;2023-04-29T03:48:00;41.42;;;21.85;;
74335;SDS011;62755;-33.398;-70.572;2023-04-29T03:50:49;46.25;;;23.67;;
74335;SDS011;62755;-33.398;-70.572;2023-04-29T03:53:39;52.25;;;24.02;;
74335;SDS011;62755;-33.398;-70.572;2023-04-29T03:56:29;40.13;;;20.60;;
74335;SDS011;62755;-33.398;-70.572;2023-04-29T03:59:20;52.40;;;21.55;;
74335;SDS011;62755;-33.398;-70.572;2023-04-29T04:02:10;40.50;;;21.63;;
74335;SDS011;62755;-33.398;-70.572;2023-04-29T04:04:59;39.70;;;22.83;;
74335;SDS011;62755;-33.398;-70.572;2023-04-29T04:07:48;42.17;;;21.38;;
74335;SDS011;62755;-33.398;-70.572;2023-04-29T04:10:38;51.92;;;23.25;;
74335;SDS011;62755;-33.398;-70.572;2023-04-29T04:13:27;46.10;;;22.92;;
74335;SDS011;62755;-33.398;-70.572;2023-04-29T04:16:19;45.60;;;20.85;;
74335;SDS011;62755;-33.398;-70.572;2023-04-29T04:19:08;37.28;;;15.20;;
74335;SDS011;62755;-33.398;-70.572;2023-04-29T04:21:58;37.55;;;15.95;;
74335;SDS011;62755;-33.398;-70.572;2023-04-29T04:24:47;51.70;;;23.17;;
74335;SDS011;62755;-33.398;-70.572;2023-04-29T04:27:37;42.08;;;19.95;;
74335;SDS011;62755;-33.398;-70.572;2023-04-29T04:30:26;66.57;;;30.65;;
74335;SDS011;62755;-33.398;-70.572;2023-04-29T04:33:17;42.40;;;19.48;;
74335;SDS011;62755;-33.398;-70.572;2023-04-29T04:36:07;52.80;;;20.30;;
74335;SDS011;62755;-33.398;-70.572;2023-04-29T04:38:56;41.35;;;18.67;;
74335;SDS011;62755;-33.398;-70.572;2023-04-29T04:41:45;46.70;;;16.63;;
74335;SDS011;62755;-33.398;-70.572;2023-04-29T04:44:35;43.78;;;15.73;;
74335;SDS011;62755;-33.398;-70.572;2023-04-29T04:47:25;36.22;;;15.77;;
74335;SDS011;62755;-33.398;-70.572;2023-04-29T04:50:17;38.65;;;13.82;;
74335;SDS011;62755;-33.398;-70.572;2023-04-29T04:53:07;39.33;;;14.35;;
74335;SDS011;62755;-33.398;-70.572;2023-04-29T04:55:59;42.03;;;14.00;;
74335;SDS011;62755;-33.398;-70.572;2023-04-29T05:02:15;34.63;;;11.65;;
74335;SDS011;62755;-33.398;-70.572;2023-04-29T05:05:05;29.35;;;12.23;;
74335;SDS011;62755;-33.398;-70.572;2023-04-29T05:07:56;33.55;;;11.48;;
74335;SDS011;62755;-33.398;-70.572;2023-04-29T05:10:46;37.05;;;12.25;;
74335;SDS011;62755;-33.398;-70.572;2023-04-29T05:13:35;28.02;;;11.95;;
74335;SDS011;62755;-33.398;-70.572;2023-04-29T05:16:25;42.85;;;14.93;;
74335;SDS011;62755;-33.398;-70.572;2023-04-29T05:19:14;34.45;;;13.68;;
74335;SDS011;62755;-33.398;-70.572;2023-04-29T05:22:03;33.13;;;13.98;;
74335;SDS011;62755;-33.398;-70.572;2023-04-29T05:24:55;33.90;;;12.65;;
74335;SDS011;62755;-33.398;-70.572;2023-04-29T05:27:47;38.70;;;13.95;;
74335;SDS011;62755;-33.398;-70.572;2023-04-29T05:30:38;35.60;;;12.43;;
74335;SDS011;62755;-33.398;-70.572;2023-04-29T05:33:27;37.95;;;13.32;;
74335;SDS011;62755;-33.398;-70.572;2023-04-29T05:36:17;46.70;;;16.58;;
74335;SDS011;62755;-33.398;-70.572;2023-04-29T05:39:06;48.83;;;22.00;;
74335;SDS011;62755;-33.398;-70.572;2023-04-29T05:41:58;42.90;;;13.30;;
74335;SDS011;62755;-33.398;-70.572;2023-04-29T05:44:48;50.63;;;19.27;;
74335;SDS011;62755;-33.398;-70.572;2023-04-29T05:47:37;40.55;;;13.25;;
74335;SDS011;62755;-33.398;-70.572;2023-04-29T05:50:27;52.65;;;19.75;;
74335;SDS011;62755;-33.398;-70.572;2023-04-29T05:53:16;36.58;;;14.88;;
74335;SDS011;62755;-33.398;-70.572;2023-04-29T05:56:06;35.63;;;14.93;;
74335;SDS011;62755;-33.398;-70.572;2023-04-29T05:58:57;39.40;;;15.70;;
74335;SDS011;62755;-33.398;-70.572;2023-04-29T06:01:46;36.47;;;12.57;;
74335;SDS011;62755;-33.398;-70.572;2023-04-29T06:04:36;32.60;;;11.07;;
74335;SDS011;62755;-33.398;-70.572;2023-04-29T06:07:25;24.50;;;11.20;;
74335;SDS011;62755;-33.398;-70.572;2023-04-29T06:10:15;27.08;;;10.90;;
74335;SDS011;62755;-33.398;-70.572;2023-04-29T06:13:04;36.30;;;11.75;;
74335;SDS011;62755;-33.398;-70.572;2023-04-29T06:15:56;33.92;;;11.63;;
74335;SDS011;62755;-33.398;-70.572;2023-04-29T06:18:45;31.90;;;13.30;;
74335;SDS011;62755;-33.398;-70.572;2023-04-29T06:21:35;37.50;;;12.00;;
74335;SDS011;62755;-33.398;-70.572;2023-04-29T06:24:24;31.60;;;11.80;;
74335;SDS011;62755;-33.398;-70.572;2023-04-29T06:27:14;31.60;;;13.13;;
74335;SDS011;62755;-33.398;-70.572;2023-04-29T06:30:04;29.65;;;13.45;;
74335;SDS011;62755;-33.398;-70.572;2023-04-29T06:32:56;35.10;;;12.80;;
74335;SDS011;62755;-33.398;-70.572;2023-04-29T06:35:46;38.97;;;14.13;;
74335;SDS011;62755;-33.398;-70.572;2023-04-29T06:38:35;25.92;;;12.20;;
74335;SDS011;62755;-33.398;-70.572;2023-04-29T06:41:25;32.00;;;12.18;;
74335;SDS011;62755;-33.398;-70.572;2023-04-29T06:44:15;39.63;;;12.65;;
74335;SDS011;62755;-33.398;-70.572;2023-04-29T06:47:05;37.53;;;11.57;;
74335;SDS011;62755;-33.398;-70.572;2023-04-29T06:49:56;43.22;;;13.23;;
74335;SDS011;62755;-33.398;-70.572;2023-04-29T06:52:45;30.75;;;12.85;;
74335;SDS011;62755;-33.398;-70.572;2023-04-29T06:55:35;34.95;;;11.85;;
74335;SDS011;62755;-33.398;-70.572;2023-04-29T06:58:25;31.00;;;11.77;;
74335;SDS011;62755;-33.398;-70.572;2023-04-29T07:01:14;36.72;;;11.05;;
74335;SDS011;62755;-33.398;-70.572;2023-04-29T07:04:04;45.55;;;11.88;;
74335;SDS011;62755;-33.398;-70.572;2023-04-29T07:06:55;36.55;;;12.45;;
74335;SDS011;62755;-33.398;-70.572;2023-04-29T07:09:45;29.23;;;11.85;;
74335;SDS011;62755;-33.398;-70.572;2023-04-29T07:12:36;28.90;;;11.25;;
74335;SDS011;62755;-33.398;-70.572;2023-04-29T07:15:26;23.25;;;11.85;;
74335;SDS011;62755;-33.398;-70.572;2023-04-29T07:18:16;31.60;;;12.38;;
74335;SDS011;62755;-33.398;-70.572;2023-04-29T07:21:06;32.85;;;11.25;;
74335;SDS011;62755;-33.398;-70.572;2023-04-29T07:23:57;43.47;;;11.85;;
74335;SDS011;62755;-33.398;-70.572;2023-04-29T07:26:49;31.67;;;11.90;;
74335;SDS011;62755;-33.398;-70.572;2023-04-29T07:29:39;36.10;;;12.38;;
74335;SDS011;62755;-33.398;-70.572;2023-04-29T07:32:28;32.83;;;12.40;;
74335;SDS011;62755;-33.398;-70.572;2023-04-29T07:35:18;29.70;;;11.38;;
74335;SDS011;62755;-33.398;-70.572;2023-04-29T07:38:08;33.58;;;11.65;;
74335;SDS011;62755;-33.398;-70.572;2023-04-29T07:40:59;24.88;;;10.80;;
74335;SDS011;62755;-33.398;-70.572;2023-04-29T07:43:49;32.80;;;10.70;;
74335;SDS011;62755;-33.398;-70.572;2023-04-29T07:46:39;25.67;;;10.35;;
74335;SDS011;62755;-33.398;-70.572;2023-04-29T07:49:28;27.25;;;9.23;;
74335;SDS011;62755;-33.398;-70.572;2023-04-29T07:52:17;28.52;;;10.77;;
74335;SDS011;62755;-33.398;-70.572;2023-04-29T07:55:07;28.52;;;10.90;;
74335;SDS011;62755;-33.398;-70.572;2023-04-29T07:57:59;24.92;;;10.52;;
74335;SDS011;62755;-33.398;-70.572;2023-04-29T08:00:48;26.75;;;9.52;;
74335;SDS011;62755;-33.398;-70.572;2023-04-29T08:03:38;18.95;;;7.70;;
74335;SDS011;62755;-33.398;-70.572;2023-04-29T08:06:27;26.48;;;8.82;;
74335;SDS011;62755;-33.398;-70.572;2023-04-29T08:09:17;18.98;;;8.00;;
74335;SDS011;62755;-33.398;-70.572;2023-04-29T08:12:07;19.55;;;7.68;;
74335;SDS011;62755;-33.398;-70.572;2023-04-29T08:14:58;25.50;;;7.75;;
74335;SDS011;62755;-33.398;-70.572;2023-04-29T08:17:48;16.23;;;6.53;;
74335;SDS011;62755;-33.398;-70.572;2023-04-29T08:20:37;16.40;;;7.10;;
74335;SDS011;62755;-33.398;-70.572;2023-04-29T08:23:27;13.98;;;7.18;;
74335;SDS011;62755;-33.398;-70.572;2023-04-29T08:26:16;21.23;;;7.35;;
74335;SDS011;62755;-33.398;-70.572;2023-04-29T08:29:07;15.63;;;7.78;;
74335;SDS011;62755;-33.398;-70.572;2023-04-29T08:31:58;17.80;;;8.00;;
74335;SDS011;62755;-33.398;-70.572;2023-04-29T08:34:48;24.98;;;8.27;;
74335;SDS011;62755;-33.398;-70.572;2023-04-29T08:37:37;21.75;;;8.40;;
74335;SDS011;62755;-33.398;-70.572;2023-04-29T08:40:27;22.45;;;8.57;;
74335;SDS011;62755;-33.398;-70.572;2023-04-29T08:43:16;22.40;;;9.18;;
74335;SDS011;62755;-33.398;-70.572;2023-04-29T08:46:07;17.23;;;7.95;;
74335;SDS011;62755;-33.398;-70.572;2023-04-29T08:49:00;18.27;;;9.15;;
74335;SDS011;62755;-33.398;-70.572;2023-04-29T08:51:51;24.30;;;12.15;;
74335;SDS011;62755;-33.398;-70.572;2023-04-29T08:54:40;25.48;;;11.18;;
74335;SDS011;62755;-33.398;-70.572;2023-04-29T08:57:30;28.08;;;10.52;;
74335;SDS011;62755;-33.398;-70.572;2023-04-29T09:00:25;22.23;;;9.85;;
74335;SDS011;62755;-33.398;-70.572;2023-04-29T09:03:16;25.33;;;8.13;;
74335;SDS011;62755;-33.398;-70.572;2023-04-29T09:06:12;13.50;;;7.85;;
74335;SDS011;62755;-33.398;-70.572;2023-04-29T09:09:02;15.40;;;8.13;;
74335;SDS011;62755;-33.398;-70.572;2023-04-29T09:11:52;19.45;;;7.10;;
74335;SDS011;62755;-33.398;-70.572;2023-04-29T09:14:42;12.52;;;7.28;;
74335;SDS011;62755;-33.398;-70.572;2023-04-29T09:17:38;18.67;;;7.35;;
74335;SDS011;62755;-33.398;-70.572;2023-04-29T09:20:31;18.80;;;6.68;;
74335;SDS011;62755;-33.398;-70.572;2023-04-29T09:23:23;14.52;;;7.35;;
74335;SDS011;62755;-33.398;-70.572;2023-04-29T09:26:24;23.60;;;7.35;;
74335;SDS011;62755;-33.398;-70.572;2023-04-29T09:29:14;19.38;;;7.65;;
74335;SDS011;62755;-33.398;-70.572;2023-04-29T09:32:17;18.52;;;7.75;;
74335;SDS011;62755;-33.398;-70.572;2023-04-29T09:35:21;23.92;;;6.97;;
74335;SDS011;62755;-33.398;-70.572;2023-04-29T09:38:11;16.73;;;7.63;;
74335;SDS011;62755;-33.398;-70.572;2023-04-29T09:41:03;14.02;;;6.93;;
74335;SDS011;62755;-33.398;-70.572;2023-04-29T09:44:03;17.80;;;7.78;;
74335;SDS011;62755;-33.398;-70.572;2023-04-29T09:46:55;24.77;;;7.15;;
74335;SDS011;62755;-33.398;-70.572;2023-04-29T09:49:47;21.52;;;6.63;;
74335;SDS011;62755;-33.398;-70.572;2023-04-29T09:52:39;16.17;;;6.57;;
74335;SDS011;62755;-33.398;-70.572;2023-04-29T09:55:29;15.32;;;7.18;;
74335;SDS011;62755;-33.398;-70.572;2023-04-29T09:58:24;17.52;;;6.53;;
74335;SDS011;62755;-33.398;-70.572;2023-04-29T10:01:18;15.55;;;7.88;;
74335;SDS011;62755;-33.398;-70.572;2023-04-29T10:04:10;23.92;;;7.18;;
74335;SDS011;62755;-33.398;-70.572;2023-04-29T10:07:01;21.13;;;8.15;;
74335;SDS011;62755;-33.398;-70.572;2023-04-29T10:09:50;15.95;;;7.82;;
74335;SDS011;62755;-33.398;-70.572;2023-04-29T10:12:40;17.17;;;6.88;;
74335;SDS011;62755;-33.398;-70.572;2023-04-29T10:15:34;15.65;;;7.07;;
74335;SDS011;62755;-33.398;-70.572;2023-04-29T10:18:34;16.55;;;7.78;;
74335;SDS011;62755;-33.398;-70.572;2023-04-29T10:21:26;13.68;;;7.53;;
74335;SDS011;62755;-33.398;-70.572;2023-04-29T10:24:16;24.38;;;7.50;;
74335;SDS011;62755;-33.398;-70.572;2023-04-29T10:27:07;14.40;;;6.65;;
74335;SDS011;62755;-33.398;-70.572;2023-04-29T10:29:59;14.35;;;5.80;;
74335;SDS011;62755;-33.398;-70.572;2023-04-29T10:32:52;12.90;;;6.07;;
74335;SDS011;62755;-33.398;-70.572;2023-04-29T10:35:43;8.50;;;5.00;;
74335;SDS011;62755;-33.398;-70.572;2023-04-29T10:38:34;17.08;;;5.45;;
74335;SDS011;62755;-33.398;-70.572;2023-04-29T10:41:30;12.63;;;5.15;;
74335;SDS011;62755;-33.398;-70.572;2023-04-29T10:44:24;11.52;;;5.25;;
74335;SDS011;62755;-33.398;-70.572;2023-04-29T10:47:20;13.60;;;6.10;;
74335;SDS011;62755;-33.398;-70.572;2023-04-29T10:50:11;12.15;;;6.13;;
74335;SDS011;62755;-33.398;-70.572;2023-04-29T10:53:01;14.25;;;6.30;;
74335;SDS011;62755;-33.398;-70.572;2023-04-29T10:55:52;20.88;;;7.32;;
74335;SDS011;62755;-33.398;-70.572;2023-04-29T10:58:44;16.13;;;7.28;;
74335;SDS011;62755;-33.398;-70.572;2023-04-29T11:01:41;22.80;;;9.07;;
74335;SDS011;62755;-33.398;-70.572;2023-04-29T11:04:31;27.83;;;9.00;;
74335;SDS011;62755;-33.398;-70.572;2023-04-29T11:07:27;24.58;;;9.98;;
74335;SDS011;62755;-33.398;-70.572;2023-04-29T11:10:18;21.38;;;9.15;;
74335;SDS011;62755;-33.398;-70.572;2023-04-29T11:13:23;16.20;;;8.40;;
74335;SDS011;62755;-33.398;-70.572;2023-04-29T11:16:13;16.58;;;8.50;;
74335;SDS011;62755;-33.398;-70.572;2023-04-29T11:19:04;18.85;;;8.52;;
74335;SDS011;62755;-33.398;-70.572;2023-04-29T11:22:06;17.45;;;7.97;;
74335;SDS011;62755;-33.398;-70.572;2023-04-29T11:25:02;20.15;;;8.70;;
74335;SDS011;62755;-33.398;-70.572;2023-04-29T11:27:53;13.43;;;8.80;;
74335;SDS011;62755;-33.398;-70.572;2023-04-29T11:30:44;19.33;;;8.45;;
74335;SDS011;62755;-33.398;-70.572;2023-04-29T11:33:34;17.25;;;8.43;;
74335;SDS011;62755;-33.398;-70.572;2023-04-29T11:36:23;21.45;;;8.77;;
74335;SDS011;62755;-33.398;-70.572;2023-04-29T11:39:13;22.73;;;8.50;;
74335;SDS011;62755;-33.398;-70.572;2023-04-29T11:42:06;16.40;;;7.85;;
74335;SDS011;62755;-33.398;-70.572;2023-04-29T11:44:56;20.20;;;10.73;;
74335;SDS011;62755;-33.398;-70.572;2023-04-29T11:47:46;18.42;;;8.85;;
74335;SDS011;62755;-33.398;-70.572;2023-04-29T11:50:35;23.38;;;8.38;;
74335;SDS011;62755;-33.398;-70.572;2023-04-29T11:53:25;16.67;;;10.13;;
74335;SDS011;62755;-33.398;-70.572;2023-04-29T11:56:15;16.40;;;9.50;;
74335;SDS011;62755;-33.398;-70.572;2023-04-29T11:59:06;13.73;;;9.35;;
74335;SDS011;62755;-33.398;-70.572;2023-04-29T12:01:56;21.63;;;10.63;;
74335;SDS011;62755;-33.398;-70.572;2023-04-29T12:04:47;15.20;;;8.82;;
74335;SDS011;62755;-33.398;-70.572;2023-04-29T12:07:36;27.60;;;11.35;;
74335;SDS011;62755;-33.398;-70.572;2023-04-29T12:10:26;21.98;;;9.15;;
74335;SDS011;62755;-33.398;-70.572;2023-04-29T12:13:16;18.83;;;9.27;;
74335;SDS011;62755;-33.398;-70.572;2023-04-29T12:16:08;20.25;;;9.07;;
74335;SDS011;62755;-33.398;-70.572;2023-04-29T12:18:58;15.45;;;8.52;;
74335;SDS011;62755;-33.398;-70.572;2023-04-29T12:21:48;17.25;;;9.00;;
74335;SDS011;62755;-33.398;-70.572;2023-04-29T12:24:38;28.10;;;9.05;;
74335;SDS011;62755;-33.398;-70.572;2023-04-29T12:27:28;19.88;;;8.70;;
74335;SDS011;62755;-33.398;-70.572;2023-04-29T12:30:17;19.30;;;9.60;;
74335;SDS011;62755;-33.398;-70.572;2023-04-29T12:33:10;22.33;;;9.25;;
74335;SDS011;62755;-33.398;-70.572;2023-04-29T12:36:14;20.60;;;9.82;;
74335;SDS011;62755;-33.398;-70.572;2023-04-29T12:39:04;26.38;;;10.45;;
74335;SDS011;62755;-33.398;-70.572;2023-04-29T12:41:56;21.00;;;10.45;;
74335;SDS011;62755;-33.398;-70.572;2023-04-29T12:44:46;19.63;;;10.60;;
74335;SDS011;62755;-33.398;-70.572;2023-04-29T12:47:36;27.50;;;9.95;;
74335;SDS011;62755;-33.398;-70.572;2023-04-29T12:50:32;23.23;;;11.10;;
74335;SDS011;62755;-33.398;-70.572;2023-04-29T12:53:22;25.63;;;12.05;;
74335;SDS011;62755;-33.398;-70.572;2023-04-29T12:56:12;23.15;;;11.45;;
74335;SDS011;62755;-33.398;-70.572;2023-04-29T12:59:06;23.40;;;11.30;;
74335;SDS011;62755;-33.398;-70.572;2023-04-29T13:01:56;31.80;;;12.50;;
74335;SDS011;62755;-33.398;-70.572;2023-04-29T13:04:45;20.17;;;10.30;;
74335;SDS011;62755;-33.398;-70.572;2023-04-29T13:07:36;19.65;;;10.48;;
74335;SDS011;62755;-33.398;-70.572;2023-04-29T13:10:26;27.08;;;10.57;;
74335;SDS011;62755;-33.398;-70.572;2023-04-29T13:13:15;21.73;;;10.02;;
74335;SDS011;62755;-33.398;-70.572;2023-04-29T13:16:05;18.63;;;10.88;;
74335;SDS011;62755;-33.398;-70.572;2023-04-29T13:18:56;22.88;;;11.15;;
74335;SDS011;62755;-33.398;-70.572;2023-04-29T13:21:45;24.63;;;11.15;;
74335;SDS011;62755;-33.398;-70.572;2023-04-29T13:24:37;19.67;;;11.20;;
74335;SDS011;62755;-33.398;-70.572;2023-04-29T13:27:26;27.35;;;13.48;;
74335;SDS011;62755;-33.398;-70.572;2023-04-29T13:30:16;22.30;;;11.98;;
74335;SDS011;62755;-33.398;-70.572;2023-04-29T13:33:05;17.42;;;10.60;;
74335;SDS011;62755;-33.398;-70.572;2023-04-29T13:35:56;15.45;;;10.68;;
74335;SDS011;62755;-33.398;-70.572;2023-04-29T13:38:45;21.13;;;10.82;;
74335;SDS011;62755;-33.398;-70.572;2023-04-29T13:41:37;24.63;;;12.32;;
74335;SDS011;62755;-33.398;-70.572;2023-04-29T13:44:26;17.92;;;9.93;;
74335;SDS011;62755;-33.398;-70.572;2023-04-29T13:47:15;20.10;;;10.57;;
74335;SDS011;62755;-33.398;-70.572;2023-04-29T13:50:05;18.00;;;10.55;;
74335;SDS011;62755;-33.398;-70.572;2023-04-29T13:52:55;22.27;;;11.32;;
74335;SDS011;62755;-33.398;-70.572;2023-04-29T13:55:45;20.40;;;10.18;;
74335;SDS011;62755;-33.398;-70.572;2023-04-29T13:58:36;17.70;;;9.90;;
74335;SDS011;62755;-33.398;-70.572;2023-04-29T14:01:26;20.52;;;10.40;;
74335;SDS011;62755;-33.398;-70.572;2023-04-29T14:04:16;20.50;;;10.93;;
74335;SDS011;62755;-33.398;-70.572;2023-04-29T14:07:05;19.35;;;11.95;;
74335;SDS011;62755;-33.398;-70.572;2023-04-29T14:09:55;19.67;;;11.43;;
74335;SDS011;62755;-33.398;-70.572;2023-04-29T14:12:44;16.67;;;10.25;;
74335;SDS011;62755;-33.398;-70.572;2023-04-29T14:15:35;20.80;;;11.18;;
74335;SDS011;62755;-33.398;-70.572;2023-04-29T14:18:25;17.88;;;10.18;;
74335;SDS011;62755;-33.398;-70.572;2023-04-29T14:21:15;18.45;;;12.10;;
74335;SDS011;62755;-33.398;-70.572;2023-04-29T14:24:07;15.45;;;10.95;;
74335;SDS011;62755;-33.398;-70.572;2023-04-29T14:26:56;20.05;;;11.63;;
74335;SDS011;62755;-33.398;-70.572;2023-04-29T14:29:46;16.98;;;11.02;;
74335;SDS011;62755;-33.398;-70.572;2023-04-29T14:32:38;18.70;;;9.82;;
74335;SDS011;62755;-33.398;-70.572;2023-04-29T14:35:27;18.30;;;9.52;;
74335;SDS011;62755;-33.398;-70.572;2023-04-29T14:38:16;15.25;;;9.00;;
74335;SDS011;62755;-33.398;-70.572;2023-04-29T14:41:06;16.17;;;9.15;;
74335;SDS011;62755;-33.398;-70.572;2023-04-29T14:43:55;14.02;;;10.93;;
74335;SDS011;62755;-33.398;-70.572;2023-04-29T14:46:44;19.90;;;9.95;;
74335;SDS011;62755;-33.398;-70.572;2023-04-29T14:49:35;15.65;;;9.63;;
74335;SDS011;62755;-33.398;-70.572;2023-04-29T14:52:25;19.05;;;10.13;;
74335;SDS011;62755;-33.398;-70.572;2023-04-29T14:55:15;21.17;;;10.18;;
74335;SDS011;62755;-33.398;-70.572;2023-04-29T14:58:04;16.63;;;10.25;;
74335;SDS011;62755;-33.398;-70.572;2023-04-29T15:00:55;16.23;;;10.43;;
74335;SDS011;62755;-33.398;-70.572;2023-04-29T15:03:44;15.07;;;9.98;;
74335;SDS011;62755;-33.398;-70.572;2023-04-29T15:06:35;16.25;;;9.43;;
74335;SDS011;62755;-33.398;-70.572;2023-04-29T15:09:25;16.05;;;9.90;;
74335;SDS011;62755;-33.398;-70.572;2023-04-29T15:12:14;17.35;;;11.02;;
74335;SDS011;62755;-33.398;-70.572;2023-04-29T15:15:05;18.92;;;11.40;;
74335;SDS011;62755;-33.398;-70.572;2023-04-29T15:17:55;40.15;;;28.42;;
74335;SDS011;62755;-33.398;-70.572;2023-04-29T15:20:45;29.15;;;18.48;;
74335;SDS011;62755;-33.398;-70.572;2023-04-29T15:23:36;22.38;;;16.48;;
74335;SDS011;62755;-33.398;-70.572;2023-04-29T15:26:26;24.15;;;20.38;;
74335;SDS011;62755;-33.398;-70.572;2023-04-29T15:29:15;48.92;;;31.33;;
74335;SDS011;62755;-33.398;-70.572;2023-04-29T15:32:05;60.80;;;33.90;;
74335;SDS011;62755;-33.398;-70.572;2023-04-29T15:34:55;42.00;;;26.00;;
74335;SDS011;62755;-33.398;-70.572;2023-04-29T15:37:44;68.53;;;42.40;;
74335;SDS011;62755;-33.398;-70.572;2023-04-29T15:40:36;84.28;;;54.00;;
74335;SDS011;62755;-33.398;-70.572;2023-04-29T15:43:25;35.38;;;19.25;;
74335;SDS011;62755;-33.398;-70.572;2023-04-29T15:46:14;62.40;;;35.78;;
74335;SDS011;62755;-33.398;-70.572;2023-04-29T15:49:04;28.85;;;17.85;;
74335;SDS011;62755;-33.398;-70.572;2023-04-29T15:51:53;20.38;;;13.57;;
74335;SDS011;62755;-33.398;-70.572;2023-04-29T15:54:42;28.60;;;16.38;;
74335;SDS011;62755;-33.398;-70.572;2023-04-29T15:57:33;80.03;;;48.80;;
74335;SDS011;62755;-33.398;-70.572;2023-04-29T16:00:26;30.05;;;20.20;;
74335;SDS011;62755;-33.398;-70.572;2023-04-29T16:03:15;78.10;;;47.47;;